Owensburg, Indiana
Current Conditions -  °F | °C
As of 6:53 PM on Friday 28 Nov 2014 (Local Time) from KBMG Reporting Station
Clear Clear  
Wind Chill: -2°   Ceiling: Unl
Heat Index:   Visibility: 10mi
Dew Point: -4°   Wind: 8mph
Humidity: 67%   Direction: 160°SSE
Pressure: 30.08"   Gusts: NA
Location:  38.92°N, 86.73°W
Report Text: KBMG 282353Z 16007KT 10SM CLR 02/M04 A3008 RMK AO2 SLP195 T00171039 10028 21006 56012
Loading
Personal Weather Stations






























Interactive Weather Map New forecast layout! Learn more

10-Day Weather Forecast

Advertisements
Track Severe Weather on mobile